Time;durP1;ratioP1;P1;durP2;ratioP2;P2;SDS_P1;SDS_P2;PMS_P1;PMS_P2;Temp;Humidity;BMP_temperature;BMP_pressure;BME280_temperature;BME280_humidity;BME280_pressure;Samples;Min_cycle;Max_cycle;Signal;HPM_P1;HPM_P2
2022/09/17 00:01:25;;;;;;;3.27;1.27;;;25.70;75.30;;;;;;5073328;28;20183;-69
2022/09/17 00:04:02;;;;;;;9.10;1.13;;;26.00;78.50;;;;;;5073354;28;20179;-68
2022/09/17 00:06:31;;;;;;;4.90;1.17;;;25.80;69.10;;;;;;5072096;28;20194;-69
2022/09/17 00:08:58;;;;;;;5.93;1.43;;;26.00;72.60;;;;;;5073531;28;20266;-72
2022/09/17 00:11:29;;;;;;;3.07;0.90;;;26.00;72.70;;;;;;5073225;28;20278;-69
2022/09/17 00:14:00;;;;;;;3.50;1.00;;;26.20;72.70;;;;;;5073403;28;20176;-72
2022/09/17 00:16:34;;;;;;;3.73;1.00;;;26.20;69.10;;;;;;5071820;28;20187;-69
2022/09/17 00:19:03;;;;;;;5.30;1.03;;;26.10;66.90;;;;;;5073177;28;20229;-72
2022/09/17 00:21:33;;;;;;;6.00;1.33;;;26.10;68.20;;;;;;5073330;28;20592;-71
2022/09/17 00:24:03;;;;;;;4.00;0.93;;;26.20;67.10;;;;;;5073017;28;20575;-69
2022/09/17 00:26:33;;;;;;;3.33;1.10;;;26.40;66.20;;;;;;5073274;28;20215;-68
2022/09/17 00:29:01;;;;;;;6.67;1.60;;;26.60;60.60;;;;;;5073302;28;20206;-70
2022/09/17 00:31:29;;;;;;;3.00;1.10;;;27.20;60.70;;;;;;5072979;28;20249;-70
2022/09/17 00:33:59;;;;;;;2.10;0.77;;;26.20;63.10;;;;;;5073225;28;20659;-71
2022/09/17 00:36:27;;;;;;;1.63;0.77;;;25.90;59.90;;;;;;5073028;28;20182;-68
2022/09/17 00:38:57;;;;;;;2.93;0.90;;;25.60;57.80;;;;;;5072910;28;20626;-71
2022/09/17 00:41:27;;;;;;;3.30;0.73;;;25.90;59.60;;;;;;5072933;28;20178;-71
2022/09/17 00:43:57;;;;;;;5.40;1.10;;;24.80;57.50;;;;;;5075682;28;20180;-68
2022/09/17 00:46:34;;;;;;;2.77;0.90;;;23.80;61.70;;;;;;5077342;28;20176;-68
2022/09/17 00:49:19;;;;;;;3.83;0.90;;;23.40;65.50;;;;;;5077072;28;20578;-68
2022/09/17 00:52:09;;;;;;;3.27;0.90;;;23.50;70.40;;;;;;5076771;28;20573;-68
2022/09/17 00:54:44;;;;;;;1.83;0.67;;;23.70;70.80;;;;;;5076670;28;20183;-69
2022/09/17 00:57:11;;;;;;;2.93;0.90;;;23.70;68.50;;;;;;5076637;28;20179;-71
2022/09/17 00:59:39;;;;;;;3.03;0.90;;;23.60;69.80;;;;;;5076868;28;20184;-68
2022/09/17 01:02:06;;;;;;;4.20;0.90;;;24.60;66.00;;;;;;5076574;28;20180;-68
2022/09/17 01:04:34;;;;;;;2.97;0.80;;;24.90;63.40;;;;;;5075276;28;20179;-71
2022/09/17 01:07:22;;;;;;;1.37;0.77;;;24.40;59.70;;;;;;5076504;28;20544;-68
2022/09/17 01:09:58;;;;;;;4.67;0.90;;;25.10;65.40;;;;;;5077039;28;20735;-73
2022/09/17 01:12:46;;;;;;;1.47;0.67;;;25.60;60.40;;;;;;5076289;28;20753;-68
2022/09/17 01:15:47;;;;;;;2.53;0.60;;;26.30;62.90;;;;;;5076516;28;20578;-68
2022/09/17 01:18:36;;;;;;;1.47;0.50;;;26.80;59.10;;;;;;5076366;28;20168;-68
2022/09/17 01:21:48;;;;;;;0.70;0.47;;;27.10;58.00;;;;;;5076221;28;20196;-67
2022/09/17 01:24:34;;;;;;;1.43;0.47;;;25.50;53.10;;;;;;5052492;28;20311;-68
2022/09/17 01:27:24;;;;;;;0.87;0.53;;;25.00;55.10;;;;;;5076478;28;20526;-67
2022/09/17 01:30:11;;;;;;;1.70;0.57;;;24.60;52.80;;;;;;5076310;28;20168;-67
2022/09/17 01:32:50;;;;;;;1.17;0.40;;;24.10;55.10;;;;;;5075882;28;20253;-68
2022/09/17 01:35:34;;;;;;;4.40;0.67;;;23.60;55.40;;;;;;5075099;28;20537;-69
2022/09/17 01:38:25;;;;;;;2.53;0.43;;;23.50;58.80;;;;;;5075652;28;20589;-68
2022/09/17 01:41:05;;;;;;;3.20;0.57;;;23.20;56.30;;;;;;5075853;28;20728;-73
2022/09/17 01:43:56;;;;;;;0.73;0.57;;;22.90;57.20;;;;;;5075870;28;20171;-68
2022/09/17 01:46:56;;;;;;;2.03;0.80;;;22.90;60.30;;;;;;5075584;28;20203;-67
2022/09/17 01:49:25;;;;;;;2.07;0.70;;;23.00;60.80;;;;;;5064674;28;20673;-68
2022/09/17 01:51:54;;;;;;;1.47;0.77;;;23.00;62.50;;;;;;5075729;28;20203;-70
2022/09/17 01:54:28;;;;;;;0.73;0.43;;;23.00;64.20;;;;;;5075396;28;20171;-68
2022/09/17 01:57:01;;;;;;;1.23;0.47;;;23.20;70.20;;;;;;5075479;28;20700;-68
2022/09/17 01:59:34;;;;;;;0.60;0.60;;;23.10;66.30;;;;;;5075925;28;20167;-67
2022/09/17 02:02:33;;;;;;;4.10;1.00;;;22.80;67.20;;;;;;5076538;28;20231;-69
2022/09/17 02:05:11;;;;;;;1.00;0.60;;;23.30;63.30;;;;;;5075822;28;20263;-70
2022/09/17 02:07:46;;;;;;;6.50;1.23;;;24.20;62.20;;;;;;5075915;28;20224;-72
2022/09/17 02:10:28;;;;;;;2.37;0.80;;;23.90;62.30;;;;;;5076140;28;20224;-69
2022/09/17 02:13:23;;;;;;;1.73;0.90;;;23.40;62.40;;;;;;5075221;28;20195;-68
2022/09/17 02:16:00;;;;;;;3.80;0.87;;;22.60;69.10;;;;;;5053210;28;20198;-68
2022/09/17 02:18:40;;;;;;;5.33;0.60;;;22.20;77.70;;;;;;5075281;28;20167;-72
2022/09/17 02:21:25;;;;;;;5.10;1.17;;;22.90;85.00;;;;;;5075207;28;20190;-68
2022/09/17 02:24:12;;;;;;;1.60;0.50;;;24.00;75.40;;;;;;5074805;28;20222;-68
2022/09/17 02:26:47;;;;;;;1.07;0.57;;;23.90;71.90;;;;;;5075312;28;20522;-72
2022/09/17 02:29:29;;;;;;;2.73;0.40;;;23.40;73.30;;;;;;5074882;28;20625;-69
2022/09/17 02:31:56;;;;;;;1.97;0.50;;;23.30;76.70;;;;;;5074964;28;20745;-69
2022/09/17 02:34:26;;;;;;;1.17;0.60;;;23.60;80.10;;;;;;5074955;28;20179;-69
2022/09/17 02:36:55;;;;;;;2.40;0.60;;;23.90;72.60;;;;;;5074705;28;20670;-69
2022/09/17 02:39:22;;;;;;;3.17;0.50;;;23.30;74.80;;;;;;5074870;28;20179;-68
2022/09/17 02:42:07;;;;;;;1.70;0.60;;;22.70;78.70;;;;;;5074993;28;20176;-69
2022/09/17 02:45:18;;;;;;;1.50;0.70;;;22.40;78.00;;;;;;5074887;28;20584;-70
2022/09/17 02:48:15;;;;;;;3.27;0.63;;;22.10;82.00;;;;;;5074909;28;20175;-69
2022/09/17 02:51:10;;;;;;;2.57;0.60;;;22.00;83.70;;;;;;5074968;28;20195;-71
2022/09/17 02:53:43;;;;;;;2.17;0.90;;;21.60;84.60;;;;;;5075110;28;20183;-68
2022/09/17 02:56:13;;;;;;;1.67;0.60;;;21.30;99.90;;;;;;5075025;28;20172;-69
2022/09/17 02:59:08;;;;;;;2.93;0.73;;;20.70;99.90;;;;;;5074916;28;20530;-69
2022/09/17 03:01:48;;;;;;;1.37;0.70;;;20.10;99.90;;;;;;5075022;28;20265;-69
2022/09/17 03:04:19;;;;;;;1.97;0.80;;;20.10;99.90;;;;;;5074362;28;20171;-73
2022/09/17 03:06:47;;;;;;;3.00;1.17;;;21.00;99.90;;;;;;5073761;28;20175;-71
2022/09/17 03:09:16;;;;;;;1.80;0.50;;;21.30;99.90;;;;;;5074262;28;20173;-70
2022/09/17 03:11:43;;;;;;;1.43;0.50;;;21.20;99.90;;;;;;5074180;28;20303;-69
2022/09/17 03:14:11;;;;;;;2.30;0.60;;;21.00;99.90;;;;;;5074540;28;20173;-68
2022/09/17 03:16:38;;;;;;;2.13;0.70;;;20.80;99.90;;;;;;5073868;28;20168;-68
2022/09/17 03:19:06;;;;;;;1.50;0.67;;;20.80;99.90;;;;;;5074268;28;20172;-68
2022/09/17 03:21:33;;;;;;;1.00;0.63;;;20.90;99.90;;;;;;5073921;28;20172;-72
2022/09/17 03:24:02;;;;;;;5.00;0.90;;;20.60;99.90;;;;;;5073617;28;20234;-68
2022/09/17 03:26:29;;;;;;;2.33;0.80;;;20.50;99.90;;;;;;5073882;28;20518;-71
2022/09/17 03:28:57;;;;;;;0.83;0.60;;;20.50;99.90;;;;;;5073801;28;20179;-71
2022/09/17 03:31:25;;;;;;;0.80;0.70;;;20.60;99.90;;;;;;5073696;28;20302;-67
2022/09/17 03:33:53;;;;;;;2.13;0.80;;;20.70;99.90;;;;;;5073572;28;20209;-71
2022/09/17 03:36:21;;;;;;;1.40;0.70;;;20.80;99.90;;;;;;5073507;28;20179;-68
2022/09/17 03:38:48;;;;;;;5.17;0.60;;;20.90;99.90;;;;;;5073684;28;20248;-70
2022/09/17 03:41:16;;;;;;;3.90;0.70;;;21.10;99.90;;;;;;5073659;28;20181;-68
2022/09/17 03:43:44;;;;;;;1.30;0.67;;;21.60;99.90;;;;;;5073712;28;20175;-68
2022/09/17 03:46:12;;;;;;;1.73;0.70;;;22.60;99.90;;;;;;5073507;28;20229;-71
2022/09/17 03:48:39;;;;;;;3.17;0.77;;;23.10;99.90;;;;;;5073534;28;20176;-68
2022/09/17 03:51:07;;;;;;;1.20;0.50;;;23.50;99.90;;;;;;5073380;28;20202;-68
2022/09/17 03:53:35;;;;;;;1.23;0.60;;;23.60;99.90;;;;;;5073622;28;20207;-68
2022/09/17 03:56:05;;;;;;;1.40;0.53;;;23.70;99.90;;;;;;5072668;28;20218;-68
2022/09/17 03:58:34;;;;;;;0.47;0.40;;;23.40;98.40;;;;;;5073481;28;20182;-68
2022/09/17 04:01:03;;;;;;;0.73;0.63;;;23.40;96.90;;;;;;5073143;28;20258;-68
2022/09/17 04:03:32;;;;;;;1.53;0.60;;;23.20;92.60;;;;;;5073152;28;20262;-68
2022/09/17 04:05:59;;;;;;;1.80;0.67;;;22.90;95.50;;;;;;5073232;28;20164;-68
2022/09/17 04:08:27;;;;;;;0.47;0.40;;;23.00;93.00;;;;;;5073282;28;20171;-68
2022/09/17 04:10:55;;;;;;;1.70;0.60;;;22.80;87.20;;;;;;5073137;28;20660;-68
2022/09/17 04:13:23;;;;;;;6.53;0.77;;;22.60;86.40;;;;;;5073216;28;20168;-68
2022/09/17 04:15:51;;;;;;;1.33;0.60;;;22.90;90.10;;;;;;5073213;28;20176;-69
2022/09/17 04:18:19;;;;;;;1.57;0.60;;;22.80;82.10;;;;;;5072463;28;20168;-68
2022/09/17 04:20:47;;;;;;;3.57;0.77;;;22.30;83.20;;;;;;5073083;28;20179;-69
2022/09/17 04:23:14;;;;;;;3.60;0.60;;;22.10;86.70;;;;;;5073051;28;20183;-68
2022/09/17 04:25:43;;;;;;;0.93;0.53;;;21.90;88.00;;;;;;5072851;28;20695;-68
2022/09/17 04:28:11;;;;;;;1.10;0.60;;;21.90;90.60;;;;;;5073035;28;20172;-68
2022/09/17 04:30:41;;;;;;;1.40;0.70;;;21.80;89.80;;;;;;5072944;28;20541;-67
2022/09/17 04:33:10;;;;;;;0.93;0.40;;;21.70;88.00;;;;;;5072851;28;20218;-68
2022/09/17 04:35:40;;;;;;;3.70;1.13;;;21.40;84.70;;;;;;5073271;28;20263;-69
2022/09/17 04:38:09;;;;;;;1.30;0.60;;;21.30;88.00;;;;;;5071680;28;20192;-68
2022/09/17 04:40:37;;;;;;;2.60;0.60;;;21.20;89.90;;;;;;5073056;28;20687;-69
2022/09/17 04:43:05;;;;;;;3.30;0.77;;;21.10;89.50;;;;;;5072731;28;20178;-68
2022/09/17 04:45:33;;;;;;;1.23;0.60;;;21.20;91.10;;;;;;5072749;28;20180;-70
2022/09/17 04:48:01;;;;;;;3.63;0.60;;;21.20;89.90;;;;;;5072991;28;20179;-69
2022/09/17 04:50:32;;;;;;;0.93;0.57;;;21.10;90.60;;;;;;5072867;28;20607;-69
2022/09/17 04:53:00;;;;;;;1.87;0.57;;;21.20;92.90;;;;;;5072714;28;20175;-69
2022/09/17 04:55:27;;;;;;;1.23;0.67;;;21.50;93.90;;;;;;5072693;28;20164;-69
2022/09/17 04:57:55;;;;;;;2.20;0.57;;;21.70;90.90;;;;;;5072481;28;20170;-69
2022/09/17 05:00:24;;;;;;;2.30;0.87;;;21.90;88.60;;;;;;5073002;28;20184;-69
2022/09/17 05:02:54;;;;;;;0.43;0.40;;;22.10;86.70;;;;;;5072584;28;20229;-70
2022/09/17 05:05:23;;;;;;;1.90;0.80;;;22.10;90.80;;;;;;5072832;28;20170;-69
2022/09/17 05:07:51;;;;;;;1.20;0.50;;;22.00;91.90;;;;;;5072409;28;20195;-69
2022/09/17 05:10:21;;;;;;;2.30;0.50;;;22.20;92.60;;;;;;5073000;28;20172;-70
2022/09/17 05:12:53;;;;;;;3.40;0.80;;;22.30;87.40;;;;;;5072380;28;20211;-69
2022/09/17 05:15:22;;;;;;;4.87;0.80;;;22.40;87.50;;;;;;5072581;28;20723;-69
2022/09/17 05:17:50;;;;;;;1.50;0.60;;;22.10;82.90;;;;;;5072306;28;20177;-68
2022/09/17 05:20:21;;;;;;;3.33;0.90;;;21.90;84.70;;;;;;5072511;28;20182;-69
2022/09/17 05:22:51;;;;;;;0.90;0.60;;;21.70;83.60;;;;;;5071136;28;20195;-69
2022/09/17 05:25:24;;;;;;;1.40;0.77;;;21.40;85.00;;;;;;5072250;28;20593;-68
2022/09/17 05:27:53;;;;;;;1.57;0.60;;;21.10;88.50;;;;;;5073107;28;20179;-68
2022/09/17 05:30:21;;;;;;;0.53;0.50;;;20.90;89.30;;;;;;5075438;28;20180;-69
2022/09/17 05:32:57;;;;;;;3.27;0.63;;;20.90;91.30;;;;;;5076206;28;20215;-68
2022/09/17 05:35:28;;;;;;;1.37;0.70;;;20.90;90.80;;;;;;5075978;28;20167;-68
2022/09/17 05:38:06;;;;;;;1.23;0.80;;;21.00;88.80;;;;;;5074716;28;20259;-69
2022/09/17 05:40:34;;;;;;;0.50;0.50;;;21.00;87.60;;;;;;5076094;28;20184;-68
2022/09/17 05:43:06;;;;;;;0.93;0.77;;;21.00;88.60;;;;;;5075929;28;20182;-68
2022/09/17 05:45:36;;;;;;;2.27;0.90;;;21.10;85.70;;;;;;5075787;28;20657;-72
2022/09/17 05:48:12;;;;;;;3.30;0.60;;;21.20;86.70;;;;;;5075953;28;20177;-68
2022/09/17 05:50:40;;;;;;;3.53;0.70;;;21.20;90.90;;;;;;5075690;28;20244;-69
2022/09/17 05:53:11;;;;;;;2.10;0.50;;;21.00;99.50;;;;;;5075822;28;20193;-68
2022/09/17 05:55:39;;;;;;;2.50;0.90;;;20.90;99.50;;;;;;5075728;28;20198;-68
2022/09/17 05:58:12;;;;;;;1.07;0.50;;;21.00;99.90;;;;;;5075519;28;20182;-70
2022/09/17 06:00:45;;;;;;;1.10;0.70;;;21.10;99.80;;;;;;5075591;28;20177;-68
2022/09/17 06:03:18;;;;;;;2.10;0.70;;;20.90;93.70;;;;;;5076003;28;20227;-68
2022/09/17 06:05:54;;;;;;;1.57;0.80;;;21.00;91.90;;;;;;5075439;28;20183;-72
2022/09/17 06:08:23;;;;;;;1.00;0.50;;;21.00;92.30;;;;;;5075607;28;20646;-68
2022/09/17 06:10:51;;;;;;;1.70;0.70;;;21.20;92.30;;;;;;5073874;28;20583;-69
2022/09/17 06:13:25;;;;;;;0.90;0.60;;;21.00;90.60;;;;;;5075423;28;20179;-68
2022/09/17 06:15:54;;;;;;;1.40;0.53;;;20.80;91.40;;;;;;5075292;28;20187;-68
2022/09/17 06:18:22;;;;;;;2.67;0.77;;;20.90;92.30;;;;;;5075384;28;20178;-73
2022/09/17 06:20:58;;;;;;;1.13;0.67;;;20.90;92.50;;;;;;5075215;28;20188;-72
2022/09/17 06:23:26;;;;;;;2.47;0.53;;;20.80;92.20;;;;;;5073831;28;20183;-69
2022/09/17 06:25:59;;;;;;;1.10;0.67;;;20.70;91.70;;;;;;5075095;28;20190;-68
2022/09/17 06:28:28;;;;;;;3.03;0.70;;;20.70;92.10;;;;;;5075119;28;20227;-68
2022/09/17 06:31:07;;;;;;;1.27;0.70;;;20.80;90.60;;;;;;5075074;28;20210;-68
2022/09/17 06:33:35;;;;;;;1.13;0.67;;;20.80;92.20;;;;;;5075032;28;20175;-68
2022/09/17 06:36:09;;;;;;;2.63;0.73;;;20.70;91.90;;;;;;5074921;28;20176;-68
2022/09/17 06:38:37;;;;;;;1.70;0.50;;;20.60;91.10;;;;;;5075135;28;20611;-69
2022/09/17 06:41:05;;;;;;;1.63;0.50;;;20.40;90.70;;;;;;5074078;28;20171;-73
2022/09/17 06:43:33;;;;;;;0.70;0.50;;;20.30;91.10;;;;;;5072430;28;20523;-68
2022/09/17 06:46:04;;;;;;;2.50;0.57;;;20.20;92.70;;;;;;5069289;28;20184;-68
2022/09/17 06:48:35;;;;;;;0.67;0.53;;;20.00;92.10;;;;;;5071303;28;20185;-69
2022/09/17 06:51:06;;;;;;;1.70;0.60;;;19.90;92.50;;;;;;5057890;28;20212;-68
2022/09/17 06:53:36;;;;;;;1.50;0.70;;;19.70;93.00;;;;;;5067764;28;20180;-69
2022/09/17 06:56:05;;;;;;;0.97;0.57;;;19.80;94.30;;;;;;5071740;28;20241;-68
2022/09/17 06:58:36;;;;;;;4.37;0.73;;;19.60;94.60;;;;;;5072332;28;20187;-68
2022/09/17 07:01:04;;;;;;;1.27;0.60;;;19.40;95.90;;;;;;5059653;28;20172;-68
2022/09/17 07:03:33;;;;;;;1.30;0.70;;;19.20;97.80;;;;;;5052928;28;20401;-68
2022/09/17 07:06:01;;;;;;;1.30;0.70;;;19.10;99.00;;;;;;5072848;28;20180;-68
2022/09/17 07:08:31;;;;;;;1.07;0.80;;;19.00;99.20;;;;;;5071536;28;20193;-67
2022/09/17 07:10:58;;;;;;;1.13;0.70;;;18.80;99.90;;;;;;5072271;28;20649;-67
2022/09/17 07:13:27;;;;;;;2.13;0.77;;;18.60;99.90;;;;;;5071967;28;20544;-67
2022/09/17 07:16:00;;;;;;;0.70;0.57;;;18.60;99.90;;;;;;5071573;28;20230;-68
2022/09/17 07:18:28;;;;;;;2.30;0.70;;;18.50;99.90;;;;;;5071433;28;20185;-68
2022/09/17 07:21:01;;;;;;;0.97;0.70;;;18.40;99.90;;;;;;5072324;28;20180;-67
2022/09/17 07:23:34;;;;;;;2.90;0.70;;;18.40;99.90;;;;;;5067622;28;20241;-69
2022/09/17 07:26:04;;;;;;;1.80;0.80;;;18.30;99.90;;;;;;5072955;28;20233;-68
2022/09/17 07:28:33;;;;;;;2.67;0.70;;;18.30;99.90;;;;;;5072750;28;20234;-68
2022/09/17 07:31:05;;;;;;;2.00;0.70;;;18.20;99.90;;;;;;5070656;28;20665;-68
2022/09/17 07:33:35;;;;;;;1.87;0.70;;;18.10;99.90;;;;;;5065842;28;20184;-68
2022/09/17 07:36:06;;;;;;;1.73;0.80;;;18.00;99.90;;;;;;5072243;28;20194;-68
2022/09/17 07:38:34;;;;;;;1.30;0.67;;;17.90;99.90;;;;;;5068492;28;20302;-68
2022/09/17 07:41:18;;;;;;;1.73;0.90;;;17.80;99.90;;;;;;5062940;28;20194;-68
2022/09/17 07:43:45;;;;;;;2.53;1.20;;;17.70;99.90;;;;;;5060059;28;20184;-67
2022/09/17 07:46:18;;;;;;;2.13;0.87;;;17.60;99.90;;;;;;5072644;28;20168;-69
2022/09/17 07:48:46;;;;;;;2.40;0.93;;;17.50;99.90;;;;;;5072316;28;20179;-67
2022/09/17 07:51:20;;;;;;;2.37;0.97;;;17.40;99.90;;;;;;5072146;28;20290;-68
2022/09/17 07:53:52;;;;;;;1.27;1.10;;;17.30;99.90;;;;;;5058428;28;20254;-67
2022/09/17 07:56:23;;;;;;;3.17;1.20;;;17.30;99.90;;;;;;5070158;28;20229;-68
2022/09/17 07:58:52;;;;;;;2.60;1.10;;;17.30;99.90;;;;;;5054686;28;20271;-67
2022/09/17 08:01:21;;;;;;;2.07;0.90;;;17.20;99.90;;;;;;5069739;28;20233;-67
2022/09/17 08:03:51;;;;;;;2.23;1.10;;;17.20;99.90;;;;;;5070641;28;20209;-68
2022/09/17 08:06:22;;;;;;;4.83;1.07;;;17.10;99.90;;;;;;5071757;28;20188;-68
2022/09/17 08:08:50;;;;;;;2.03;1.20;;;17.00;99.90;;;;;;5071987;28;20183;-68
2022/09/17 08:11:24;;;;;;;1.57;0.80;;;16.90;99.90;;;;;;5072257;28;20260;-67
2022/09/17 08:13:53;;;;;;;3.97;1.10;;;16.90;99.90;;;;;;5071712;28;20175;-68
2022/09/17 08:16:22;;;;;;;3.23;1.00;;;16.80;99.90;;;;;;5071863;28;20190;-68
2022/09/17 08:18:55;;;;;;;2.47;1.00;;;16.70;99.90;;;;;;5071830;28;20681;-69
2022/09/17 08:21:24;;;;;;;3.83;1.23;;;16.60;99.90;;;;;;5063250;28;20187;-67
2022/09/17 08:23:52;;;;;;;2.67;1.10;;;16.50;99.90;;;;;;5060241;28;20255;-67
2022/09/17 08:26:22;;;;;;;1.40;1.00;;;16.50;99.90;;;;;;5069084;28;20204;-68
2022/09/17 08:28:55;;;;;;;2.47;1.10;;;16.40;99.90;;;;;;5071986;28;20214;-67
2022/09/17 08:31:28;;;;;;;4.87;1.60;;;16.30;99.90;;;;;;5071278;28;20290;-67
2022/09/17 08:33:56;;;;;;;3.63;1.70;;;16.20;99.90;;;;;;5071692;28;20175;-67
2022/09/17 08:36:28;;;;;;;2.73;1.47;;;16.20;99.90;;;;;;5063144;28;20177;-68
2022/09/17 08:38:57;;;;;;;6.37;2.40;;;16.20;99.90;;;;;;5069453;28;20221;-68
2022/09/17 08:42:16;;;;;;;3.70;1.80;;;16.20;99.90;;;;;;5068044;28;20188;-68
2022/09/17 08:44:46;;;;;;;4.50;2.03;;;16.20;99.90;;;;;;5061296;28;20219;-69
2022/09/17 08:47:38;;;;;;;4.27;2.03;;;16.20;99.90;;;;;;5070421;28;20597;-67
2022/09/17 08:50:12;;;;;;;6.13;1.90;;;16.10;99.90;;;;;;5071723;28;20183;-66
2022/09/17 08:53:00;;;;;;;3.73;1.57;;;16.00;99.90;;;;;;5072196;28;20199;-67
2022/09/17 08:55:43;;;;;;;3.87;2.00;;;15.90;99.90;;;;;;5063446;28;20188;-67
2022/09/17 08:58:27;;;;;;;3.00;1.50;;;15.80;99.90;;;;;;5052466;28;20181;-66
2022/09/17 09:01:16;;;;;;;3.47;1.40;;;15.60;99.90;;;;;;5066527;28;20184;-68
2022/09/17 09:04:05;;;;;;;7.90;1.60;;;15.60;99.90;;;;;;5073498;28;20182;-67
2022/09/17 09:07:04;;;;;;;3.83;1.53;;;15.50;99.90;;;;;;5075250;28;20217;-68
2022/09/17 09:09:45;;;;;;;4.87;1.60;;;15.40;99.90;;;;;;5065545;28;20652;-68
2022/09/17 09:12:26;;;;;;;2.83;1.60;;;15.30;99.90;;;;;;5076595;28;20329;-68
2022/09/17 09:15:05;;;;;;;5.80;2.27;;;15.30;99.90;;;;;;5080474;28;20181;-68
2022/09/17 09:17:42;;;;;;;3.27;1.30;;;15.30;99.90;;;;;;5079069;28;20186;-68
2022/09/17 09:20:55;;;;;;;5.70;1.47;;;15.30;99.90;;;;;;5078488;28;20586;-68
2022/09/17 09:23:57;;;;;;;4.40;1.23;;;15.30;99.90;;;;;;5070899;28;20201;-68
2022/09/17 09:26:46;;;;;;;5.20;1.73;;;15.30;99.90;;;;;;5076356;28;20570;-68
2022/09/17 09:30:01;;;;;;;7.60;2.10;;;15.20;99.90;;;;;;5076413;28;20175;-68
2022/09/17 09:32:35;;;;;;;3.17;1.40;;;15.10;99.90;;;;;;5070934;28;20253;-68
2022/09/17 09:35:23;;;;;;;4.83;1.93;;;15.20;99.90;;;;;;5076113;28;20257;-68
2022/09/17 09:38:01;;;;;;;4.47;1.83;;;15.20;99.90;;;;;;5076246;28;20635;-68
2022/09/17 09:40:46;;;;;;;3.27;1.40;;;15.20;99.90;;;;;;5076219;28;20176;-68
2022/09/17 09:43:20;;;;;;;4.33;1.80;;;15.10;99.90;;;;;;5076012;28;20192;-68
2022/09/17 09:46:05;;;;;;;2.67;1.27;;;15.10;99.90;;;;;;5075993;28;20171;-67
2022/09/17 09:49:12;;;;;;;2.57;1.33;;;15.20;99.90;;;;;;5075162;28;20606;-67
2022/09/17 09:51:43;;;;;;;4.43;1.20;;;15.10;99.90;;;;;;5061163;28;20316;-67
2022/09/17 09:54:36;;;;;;;4.20;1.57;;;15.10;99.90;;;;;;5072832;28;20209;-67
2022/09/17 09:57:10;;;;;;;4.17;1.57;;;15.10;99.90;;;;;;5053573;28;20277;-66
2022/09/17 09:59:40;;;;;;;3.53;1.87;;;15.00;99.90;;;;;;5056405;28;20263;-67
2022/09/17 10:02:08;;;;;;;3.57;2.10;;;15.10;99.90;;;;;;5060021;28;20190;-67
2022/09/17 10:04:36;;;;;;;2.57;1.40;;;15.10;99.90;;;;;;5059858;28;20191;-67
2022/09/17 10:07:13;;;;;;;2.37;1.67;;;15.00;99.90;;;;;;5055801;28;20181;-67
2022/09/17 10:09:45;;;;;;;3.43;1.20;;;15.10;99.90;;;;;;5063956;28;20183;-67
2022/09/17 10:12:20;;;;;;;3.83;1.17;;;15.10;99.90;;;;;;5055451;28;20208;-68
2022/09/17 10:14:49;;;;;;;1.80;1.00;;;15.10;99.90;;;;;;5055062;28;20244;-67
2022/09/17 10:17:21;;;;;;;3.10;1.17;;;15.10;99.90;;;;;;5068795;28;20187;-67
2022/09/17 10:20:06;;;;;;;5.40;1.57;;;15.20;99.90;;;;;;5075586;28;20183;-67
2022/09/17 10:22:39;;;;;;;3.50;1.00;;;15.20;99.90;;;;;;5075558;28;20186;-66
2022/09/17 10:25:25;;;;;;;2.63;1.00;;;15.10;99.90;;;;;;5075473;28;20756;-67
2022/09/17 10:27:54;;;;;;;3.13;1.10;;;15.10;99.90;;;;;;5074880;28;20186;-67
2022/09/17 10:30:23;;;;;;;5.17;1.43;;;15.10;99.90;;;;;;5071714;28;20235;-68
2022/09/17 10:33:11;;;;;;;5.53;1.10;;;15.20;99.90;;;;;;5055053;28;20661;-67
2022/09/17 10:35:39;;;;;;;4.40;1.20;;;15.10;99.90;;;;;;5055153;28;20182;-67
2022/09/17 10:38:46;;;;;;;2.90;1.10;;;15.10;99.90;;;;;;5058283;28;20213;-66
2022/09/17 10:41:18;;;;;;;3.30;1.33;;;15.20;99.90;;;;;;5074595;28;20201;-66
2022/09/17 10:43:46;;;;;;;1.77;1.10;;;15.20;99.90;;;;;;5074890;28;20168;-67
2022/09/17 10:46:20;;;;;;;1.83;1.00;;;15.20;99.90;;;;;;5075045;28;20198;-68
2022/09/17 10:49:05;;;;;;;4.77;1.47;;;15.20;99.90;;;;;;5074680;28;20178;-67
2022/09/17 10:51:33;;;;;;;2.60;1.13;;;15.10;99.90;;;;;;5075195;28;20250;-68
2022/09/17 10:54:15;;;;;;;1.37;1.00;;;15.20;99.90;;;;;;5068129;28;20189;-68
2022/09/17 10:56:52;;;;;;;7.07;1.40;;;15.10;99.90;;;;;;5061689;28;20193;-67
2022/09/17 10:59:44;;;;;;;2.23;1.13;;;15.10;99.90;;;;;;5074451;28;20577;-68
2022/09/17 11:02:26;;;;;;;4.40;1.20;;;15.10;99.90;;;;;;5074817;28;20183;-66
2022/09/17 11:05:18;;;;;;;2.23;1.00;;;15.00;99.90;;;;;;5074411;28;20231;-68
2022/09/17 11:08:11;;;;;;;3.33;1.03;;;15.10;99.90;;;;;;5074671;28;20258;-68
2022/09/17 11:10:59;;;;;;;3.10;1.20;;;15.00;99.90;;;;;;5054510;28;20195;-68
2022/09/17 11:13:48;;;;;;;4.47;1.50;;;15.00;99.90;;;;;;5069918;28;20531;-68
2022/09/17 11:16:37;;;;;;;4.50;1.40;;;15.00;99.90;;;;;;5074860;28;20176;-69
2022/09/17 11:19:23;;;;;;;5.33;1.90;;;14.90;99.90;;;;;;5074206;28;20656;-68
2022/09/17 11:22:11;;;;;;;4.47;1.70;;;14.80;99.90;;;;;;5074618;28;20224;-67
2022/09/17 11:25:29;;;;;;;2.87;1.50;;;14.90;99.90;;;;;;5074106;28;20227;-68
2022/09/17 11:28:18;;;;;;;3.27;1.70;;;14.90;99.90;;;;;;5047808;28;20202;-67
2022/09/17 11:30:55;;;;;;;5.10;1.40;;;14.90;99.90;;;;;;5074150;28;20175;-67
2022/09/17 11:33:39;;;;;;;4.67;1.90;;;14.80;99.90;;;;;;5073955;28;20176;-67
2022/09/17 11:36:19;;;;;;;3.57;1.53;;;14.80;99.90;;;;;;5072691;28;20181;-68
2022/09/17 11:38:52;;;;;;;2.80;1.50;;;14.80;99.90;;;;;;5073717;28;20186;-68
2022/09/17 11:41:22;;;;;;;7.00;1.60;;;14.70;99.90;;;;;;5073688;28;20252;-67
2022/09/17 11:44:20;;;;;;;6.57;1.87;;;14.70;99.90;;;;;;5053874;28;20175;-69
2022/09/17 11:47:18;;;;;;;3.30;1.73;;;14.70;99.90;;;;;;5053865;28;20259;-67
2022/09/17 11:49:49;;;;;;;2.83;1.23;;;14.70;99.90;;;;;;5052209;28;20280;-67
2022/09/17 11:52:43;;;;;;;3.17;1.27;;;14.70;99.90;;;;;;5073496;28;20585;-67
2022/09/17 11:55:17;;;;;;;3.30;1.47;;;14.60;99.90;;;;;;5073663;28;20343;-68
2022/09/17 11:57:46;;;;;;;5.07;1.57;;;14.60;99.90;;;;;;5072117;28;20194;-67
2022/09/17 12:00:17;;;;;;;2.97;1.40;;;14.60;99.90;;;;;;5073432;28;20209;-67
2022/09/17 12:03:13;;;;;;;3.87;1.13;;;14.70;99.90;;;;;;5063210;28;20177;-67
2022/09/17 12:05:45;;;;;;;1.77;1.00;;;14.80;99.90;;;;;;5061699;28;20220;-67
2022/09/17 12:08:43;;;;;;;2.83;1.10;;;14.90;99.90;;;;;;5066085;28;20573;-68
2022/09/17 12:11:22;;;;;;;3.90;1.40;;;14.90;99.90;;;;;;5073416;28;20212;-68
2022/09/17 12:14:00;;;;;;;3.83;1.30;;;14.90;99.90;;;;;;5073309;28;20266;-66
2022/09/17 12:16:38;;;;;;;2.97;1.47;;;14.80;99.90;;;;;;5073385;28;20185;-67
2022/09/17 12:19:17;;;;;;;1.93;1.27;;;14.80;99.90;;;;;;5072815;28;20182;-67
2022/09/17 12:22:05;;;;;;;5.33;1.80;;;14.80;99.90;;;;;;5053270;28;20211;-66
2022/09/17 12:24:33;;;;;;;4.27;1.43;;;14.80;99.90;;;;;;5052944;28;20269;-68
2022/09/17 12:27:16;;;;;;;2.63;1.13;;;14.70;99.90;;;;;;5053402;28;20179;-69
2022/09/17 12:30:16;;;;;;;4.43;1.57;;;14.70;99.90;;;;;;5072217;28;20277;-66
2022/09/17 12:33:37;;;;;;;2.43;1.10;;;14.60;99.90;;;;;;5073142;28;20591;-67
2022/09/17 12:36:21;;;;;;;2.20;1.10;;;14.60;99.90;;;;;;5011353;28;20580;-68
2022/09/17 12:39:09;;;;;;;3.03;1.57;;;14.60;99.90;;;;;;5066941;28;20201;-67
2022/09/17 12:41:45;;;;;;;2.97;1.30;;;14.60;99.90;;;;;;5073270;28;20648;-67
2022/09/17 12:44:41;;;;;;;5.63;1.40;;;14.50;99.90;;;;;;5069215;28;20205;-66
2022/09/17 12:47:37;;;;;;;2.07;1.30;;;14.50;99.90;;;;;;5079441;28;20196;-67
2022/09/17 12:50:26;;;;;;;4.67;1.53;;;14.50;99.90;;;;;;5078981;28;20180;-67
2022/09/17 12:53:13;;;;;;;3.57;1.30;;;14.60;99.90;;;;;;5070648;28;20215;-66
2022/09/17 12:55:53;;;;;;;3.50;1.10;;;14.80;99.90;;;;;;5060594;28;20200;-67
2022/09/17 12:58:45;;;;;;;2.80;1.00;;;14.70;99.90;;;;;;5064970;28;20649;-69
2022/09/17 13:01:38;;;;;;;2.97;1.20;;;14.70;99.90;;;;;;5056442;28;20202;-68
2022/09/17 13:04:21;;;;;;;3.53;1.20;;;14.70;99.90;;;;;;5073202;28;20701;-69
2022/09/17 13:07:01;;;;;;;6.27;1.20;;;14.70;99.90;;;;;;5073129;28;20181;-66
2022/09/17 13:10:02;;;;;;;1.37;1.10;;;14.70;99.90;;;;;;5072838;28;20260;-67
2022/09/17 13:12:44;;;;;;;2.77;1.20;;;14.60;99.90;;;;;;5072794;28;20209;-67
2022/09/17 13:15:33;;;;;;;4.40;1.43;;;14.50;99.90;;;;;;5072979;28;20189;-67
2022/09/17 13:18:38;;;;;;;1.50;1.10;;;14.50;99.90;;;;;;5072373;28;20182;-68
2022/09/17 13:21:19;;;;;;;3.47;1.30;;;14.50;99.90;;;;;;5073121;28;20175;-68
2022/09/17 13:23:50;;;;;;;3.73;1.10;;;14.60;99.90;;;;;;5072236;28;20223;-68
2022/09/17 13:26:32;;;;;;;2.33;1.23;;;14.60;99.90;;;;;;5073309;28;20186;-68
2022/09/17 13:29:08;;;;;;;2.03;0.90;;;14.60;99.90;;;;;;5072081;28;20186;-67
2022/09/17 13:31:41;;;;;;;3.57;1.60;;;14.60;99.90;;;;;;5072762;28;20245;-69
2022/09/17 13:34:28;;;;;;;2.33;1.13;;;14.60;99.90;;;;;;5071368;28;20187;-69
2022/09/17 13:37:04;;;;;;;1.90;0.80;;;14.60;99.90;;;;;;5072525;28;20213;-66